SPJL/JUL METAR and TAF weather

Enter ICAO airport designator
Station Type Date Time Source
SPJL METAR 2021/03/02 16:00 UTC NOAA

SPJL 021600Z 17005KT 9999 BKN020 13/04 Q1034 NOSIG RMK PP000


Station Type Date Time Source
SPJL Decoded METAR 2021/03/02 16:00 UTC NOAA

Juliaca, Peru (SPJL) 15-29S 070-09W 3827M
Mar 02, 2021 - 11:00 AM EST / 2021.03.02 1600 UTC
Wind: from the S (170 degrees) at 6 MPH (5 KT):0
Visibility: greater than 7 mile(s):0
Sky conditions: mostly cloudy
Temperature: 55 F (13 C)
Dew Point: 39 F (4 C)
Relative Humidity: 54%
Pressure (altimeter): 30.53 in. Hg (1034 hPa)
ob: SPJL 021600Z 17005KT 9999 BKN020 13/04 Q1034 NOSIG RMK PP000
cycle: 16

Station Type Date Time Source
SPJL TAF 2021/03/02 12:33 UTC NOAA

TAF TAF SPJL 021227Z 0212/0312 24003KT 9999 SCT015 BKN070 TX17/0219Z TN06/0310Z
FM021600 05007KT 9999 SCT020
FM030000 12004KT 9999 SCT015 SCT080

Example: see airport list